createdAt,value
2023-08-08T00:02:22.143Z,96.68
2023-08-08T00:05:10.877Z,96.70
2023-08-08T00:07:59.095Z,96.42
2023-08-08T00:10:47.194Z,96.60
2023-08-08T00:13:35.361Z,96.75
2023-08-08T00:16:23.543Z,96.35
2023-08-08T00:19:14.747Z,96.58
2023-08-08T00:22:02.905Z,96.51
2023-08-08T00:24:51.076Z,96.63
2023-08-08T00:27:43.431Z,96.80
2023-08-08T00:30:33.239Z,96.69
2023-08-08T00:33:21.404Z,96.40
2023-08-08T00:36:09.732Z,96.54
2023-08-08T00:38:57.887Z,96.56
2023-08-08T00:41:46.134Z,96.52
2023-08-08T00:44:33.953Z,96.07
2023-08-08T00:47:22.165Z,95.73
2023-08-08T00:50:12.639Z,96.17
2023-08-08T00:53:02.305Z,96.03
2023-08-08T00:55:50.780Z,96.31
2023-08-08T00:58:39.007Z,96.09
2023-08-08T01:01:26.804Z,95.89
2023-08-08T01:04:15.578Z,95.64
2023-08-08T01:07:12.708Z,96.33
2023-08-08T01:10:08.571Z,96.31
2023-08-08T01:13:05.950Z,96.33
2023-08-08T01:15:57.641Z,96.57
2023-08-08T01:18:50.266Z,96.32
2023-08-08T01:21:42.408Z,96.50
2023-08-08T01:24:34.238Z,96.51
2023-08-08T01:27:22.598Z,96.54
2023-08-08T01:30:12.129Z,96.84
2023-08-08T01:33:00.225Z,96.80
2023-08-08T01:36:04.879Z,96.69
2023-08-08T01:38:56.859Z,96.83
2023-08-08T01:41:48.451Z,96.98
2023-08-08T01:44:37.345Z,96.77
2023-08-08T01:47:25.545Z,96.98
2023-08-08T01:50:13.615Z,96.93
2023-08-08T01:53:03.040Z,97.14
2023-08-08T01:55:53.609Z,97.27
2023-08-08T01:58:41.670Z,97.14
2023-08-08T02:01:29.839Z,97.24
2023-08-08T02:03:58.030Z,97.40
2023-08-08T02:06:46.193Z,97.23
2023-08-08T02:09:34.337Z,97.35
2023-08-08T02:12:22.448Z,97.35
2023-08-08T02:15:10.940Z,97.41
2023-08-08T02:17:59.078Z,97.16
2023-08-08T02:20:52.832Z,97.51
2023-08-08T02:23:41.009Z,97.61
2023-08-08T02:26:28.743Z,97.58
2023-08-08T02:29:16.910Z,97.62
2023-08-08T02:32:05.433Z,97.58
2023-08-08T02:34:53.526Z,97.35
2023-08-08T02:37:41.722Z,97.73
2023-08-08T02:40:29.826Z,97.52
2023-08-08T02:43:17.965Z,97.58
2023-08-08T02:46:06.137Z,97.99
2023-08-08T02:48:54.279Z,97.74
2023-08-08T02:51:42.391Z,97.79
2023-08-08T02:54:30.598Z,97.87
2023-08-08T02:57:19.149Z,97.87
2023-08-08T03:00:09.464Z,98.00
2023-08-08T03:02:57.980Z,97.98
2023-08-08T03:05:47.998Z,98.10
2023-08-08T03:08:36.244Z,98.40
2023-08-08T03:11:24.081Z,97.88
2023-08-08T03:14:12.370Z,97.99
2023-08-08T03:17:01.523Z,97.66
2023-08-08T03:19:48.294Z,97.90
2023-08-08T03:22:36.625Z,97.96
2023-08-08T03:25:24.276Z,97.87
2023-08-08T03:28:12.537Z,97.63
2023-08-08T03:31:00.289Z,97.63
2023-08-08T03:33:49.209Z,97.87
2023-08-08T03:36:37.233Z,97.71
2023-08-08T03:39:25.576Z,98.14
2023-08-08T03:42:13.659Z,97.85
2023-08-08T03:45:01.841Z,97.83
2023-08-08T03:47:49.967Z,98.13
2023-08-08T03:50:41.084Z,98.27
2023-08-08T03:53:29.207Z,98.37
2023-08-08T03:56:17.423Z,98.16
2023-08-08T03:59:05.553Z,98.20
2023-08-08T04:01:53.715Z,98.37
2023-08-08T04:04:41.916Z,98.45
2023-08-08T04:07:30.056Z,98.30
2023-08-08T04:10:18.333Z,98.25
2023-08-08T04:13:06.198Z,98.05
2023-08-08T04:15:54.407Z,97.98
2023-08-08T04:18:42.526Z,97.95
2023-08-08T04:21:33.412Z,98.08
2023-08-08T04:24:21.530Z,98.05
2023-08-08T04:27:09.736Z,98.00
2023-08-08T04:29:58.003Z,97.83
2023-08-08T04:32:46.058Z,98.18
2023-08-08T04:35:34.181Z,97.62
2023-08-08T04:38:22.417Z,97.80
2023-08-08T04:41:10.300Z,97.50
2023-08-08T04:43:58.447Z,97.63
2023-08-08T04:46:46.606Z,97.88
2023-08-08T04:49:34.706Z,97.42
2023-08-08T04:52:22.903Z,97.71
2023-08-08T04:55:12.583Z,97.44
2023-08-08T04:58:00.918Z,97.17
2023-08-08T05:00:48.689Z,97.48
2023-08-08T05:03:36.968Z,97.15
2023-08-08T05:06:25.061Z,96.94
2023-08-08T05:09:14.467Z,97.11
2023-08-08T05:12:02.864Z,96.84
2023-08-08T05:14:50.817Z,96.59
2023-08-08T05:17:39.179Z,96.69
2023-08-08T05:20:27.015Z,96.28
2023-08-08T05:23:15.272Z,96.08
2023-08-08T05:26:03.046Z,95.82
2023-08-08T05:28:44.046Z,95.79
2023-08-08T05:31:31.484Z,95.73
2023-08-08T05:34:19.627Z,95.69
2023-08-08T05:37:10.694Z,95.07
2023-08-08T05:39:40.836Z,90.63
2023-08-08T05:42:20.710Z,87.12
2023-08-08T05:45:00.417Z,81.72
2023-08-08T05:47:40.014Z,81.91
2023-08-08T05:50:20.691Z,79.17
2023-08-08T05:53:00.342Z,81.24
2023-08-08T05:55:42.980Z,82.00
2023-08-08T05:58:23.503Z,83.03
2023-08-08T06:01:03.070Z,81.42
2023-08-08T06:03:43.749Z,82.51
2023-08-08T06:06:23.338Z,82.10
2023-08-08T06:09:03.182Z,79.25
2023-08-08T06:11:42.719Z,74.32
2023-08-08T06:14:20.614Z,70.90
2023-08-08T06:16:59.800Z,65.70
2023-08-08T06:19:38.134Z,62.04
2023-08-08T06:22:18.048Z,63.83
2023-08-08T06:24:57.728Z,65.79
2023-08-08T06:27:39.667Z,67.34
2023-08-08T06:30:19.430Z,68.71
2023-08-08T06:32:58.953Z,70.28
2023-08-08T06:35:41.692Z,70.41
2023-08-08T06:38:21.339Z,72.82
2023-08-08T06:41:01.374Z,72.79
2023-08-08T06:43:42.052Z,73.12
2023-08-08T06:46:21.959Z,73.01
2023-08-08T06:49:02.598Z,72.16
2023-08-08T06:51:42.053Z,73.09
2023-08-08T06:54:21.767Z,70.81
2023-08-08T06:57:02.663Z,71.69
2023-08-08T06:59:42.875Z,71.05
2023-08-08T07:02:24.909Z,70.87
2023-08-08T07:04:54.062Z,71.25
2023-08-08T07:07:34.635Z,70.03
2023-08-08T07:10:14.521Z,69.20
2023-08-08T07:12:54.164Z,68.93
2023-08-08T07:15:33.970Z,69.19
2023-08-08T07:18:13.661Z,67.15
2023-08-08T07:21:02.897Z,68.50
2023-08-08T07:23:42.554Z,68.59
2023-08-08T07:26:23.547Z,64.92
2023-08-08T07:29:07.251Z,66.12
2023-08-08T07:31:46.996Z,66.78
2023-08-08T07:34:26.511Z,66.94
2023-08-08T07:37:06.372Z,65.98
2023-08-08T07:39:55.308Z,65.61
2023-08-08T07:42:44.581Z,65.77
2023-08-08T07:45:32.763Z,63.49
2023-08-08T07:48:13.928Z,64.17
2023-08-08T07:50:53.457Z,62.37
2023-08-08T07:53:35.051Z,62.02
2023-08-08T07:56:14.695Z,61.90
2023-08-08T07:58:57.364Z,62.63
2023-08-08T08:01:37.102Z,62.25
2023-08-08T08:04:24.039Z,62.46
2023-08-08T08:07:03.926Z,62.17
2023-08-08T08:09:43.948Z,61.46
2023-08-08T08:12:23.577Z,60.22
2023-08-08T08:15:03.703Z,57.89
2023-08-08T08:17:43.571Z,60.10
2023-08-08T08:20:35.376Z,60.74
2023-08-08T08:23:15.688Z,59.02
2023-08-08T08:25:55.303Z,57.23
2023-08-08T08:28:35.075Z,56.57
2023-08-08T08:31:24.482Z,58.20
2023-08-08T08:34:12.577Z,57.19
2023-08-08T08:36:59.972Z,57.62
2023-08-08T08:39:48.448Z,56.91
2023-08-08T08:42:37.552Z,55.94
2023-08-08T08:45:24.835Z,55.45
2023-08-08T08:48:04.853Z,56.48
2023-08-08T08:50:54.822Z,55.17
2023-08-08T08:53:36.283Z,54.19
2023-08-08T08:56:20.160Z,54.17
2023-08-08T08:58:59.987Z,55.00
2023-08-08T09:01:39.903Z,54.60
2023-08-08T09:04:23.298Z,55.26
2023-08-08T09:07:03.752Z,53.67
2023-08-08T09:09:46.121Z,53.93
2023-08-08T09:12:26.308Z,55.40
2023-08-08T09:15:07.200Z,54.89
2023-08-08T09:17:49.307Z,56.03
2023-08-08T09:20:31.926Z,57.00
2023-08-08T09:23:12.241Z,56.54
2023-08-08T09:25:56.690Z,54.21
2023-08-08T09:28:39.509Z,55.98
2023-08-08T09:31:19.679Z,53.60
2023-08-08T09:34:01.709Z,53.06
2023-08-08T09:36:42.605Z,54.46
2023-08-08T09:39:22.825Z,53.58
2023-08-08T09:42:05.481Z,53.79
2023-08-08T09:44:45.583Z,54.55
2023-08-08T09:47:25.876Z,53.86
2023-08-08T09:50:12.685Z,53.53
2023-08-08T09:52:57.357Z,52.25
2023-08-08T09:55:37.772Z,51.62
2023-08-08T09:58:18.728Z,52.13
2023-08-08T10:00:58.356Z,52.66
2023-08-08T10:03:39.405Z,53.97
2023-08-08T10:06:29.902Z,54.61
2023-08-08T10:09:10.204Z,52.08
2023-08-08T10:11:51.472Z,52.61
2023-08-08T10:14:38.183Z,52.68
2023-08-08T10:17:19.906Z,53.50
2023-08-08T10:20:01.127Z,53.52
2023-08-08T10:22:48.324Z,54.10
2023-08-08T10:25:32.554Z,54.37
2023-08-08T10:30:59.921Z,53.56
2023-08-08T10:33:45.417Z,52.90
2023-08-08T10:36:25.432Z,52.30
2023-08-08T10:39:05.228Z,52.62
2023-08-08T10:41:53.621Z,53.31
2023-08-08T10:44:43.799Z,52.12
2023-08-08T10:47:38.036Z,54.50
2023-08-08T10:50:26.226Z,54.14
2023-08-08T10:53:14.383Z,53.08
2023-08-08T10:56:07.740Z,53.13
2023-08-08T10:58:53.281Z,52.09
2023-08-08T11:01:33.250Z,51.34
2023-08-08T11:04:14.861Z,51.42
2023-08-08T11:06:57.713Z,51.54
2023-08-08T11:09:42.778Z,51.28
2023-08-08T11:12:28.015Z,51.52
2023-08-08T11:15:08.414Z,51.72
2023-08-08T11:17:47.823Z,51.61
2023-08-08T11:20:37.954Z,51.97
2023-08-08T11:23:26.097Z,50.83
2023-08-08T11:29:01.054Z,50.58
2023-08-08T11:31:44.721Z,50.77
2023-08-08T11:34:35.308Z,49.70
2023-08-08T11:37:16.417Z,51.25
2023-08-08T11:39:59.092Z,48.49
2023-08-08T11:42:48.016Z,50.71
2023-08-08T11:45:37.110Z,48.81
2023-08-08T11:48:26.998Z,48.36
2023-08-08T11:51:11.314Z,49.84
2023-08-08T11:54:03.462Z,49.16
2023-08-08T11:56:51.806Z,48.82
2023-08-08T11:59:37.474Z,48.71
2023-08-08T12:02:28.802Z,50.38
2023-08-08T12:05:10.846Z,49.86
2023-08-08T12:07:43.335Z,49.78
2023-08-08T12:10:32.036Z,50.24
2023-08-08T12:13:28.118Z,49.64
2023-08-08T12:15:56.966Z,49.68
2023-08-08T12:18:40.594Z,49.54
2023-08-08T12:21:20.269Z,49.15
2023-08-08T12:23:59.992Z,49.22
2023-08-08T12:26:42.416Z,50.01
2023-08-08T12:29:22.281Z,49.17
2023-08-08T12:32:03.930Z,48.22
2023-08-08T12:34:43.841Z,49.95
2023-08-08T12:37:24.936Z,51.59
2023-08-08T12:40:06.007Z,51.16
2023-08-08T12:42:44.546Z,50.74
2023-08-08T12:45:25.443Z,50.12
2023-08-08T12:48:05.569Z,52.21
2023-08-08T12:50:45.161Z,52.26
2023-08-08T12:53:24.946Z,53.63
2023-08-08T12:56:04.716Z,52.89
2023-08-08T12:58:52.145Z,51.18
2023-08-08T13:01:21.137Z,48.64
2023-08-08T13:04:18.234Z,47.91
2023-08-08T13:06:45.597Z,46.11
2023-08-08T13:09:16.064Z,46.96
2023-08-08T13:12:34.870Z,47.92
2023-08-08T13:15:21.708Z,48.04
2023-08-08T13:18:01.502Z,48.19
2023-08-08T13:20:42.083Z,47.24
2023-08-08T13:23:21.664Z,46.59
2023-08-08T13:26:02.094Z,44.81
2023-08-08T13:28:44.460Z,46.32
2023-08-08T13:31:24.103Z,45.10
2023-08-08T13:34:03.797Z,45.23
2023-08-08T13:36:44.375Z,46.70
2023-08-08T13:42:23.945Z,47.86
2023-08-08T13:45:13.644Z,49.63
2023-08-08T13:47:53.312Z,50.13
2023-08-08T13:50:32.954Z,51.48
2023-08-08T13:53:19.200Z,52.00
2023-08-08T13:56:06.022Z,51.43
2023-08-08T13:58:47.423Z,52.27
2023-08-08T14:01:27.038Z,50.76
2023-08-08T14:04:08.310Z,50.93
2023-08-08T14:06:49.441Z,51.77
2023-08-08T14:09:29.161Z,51.51
2023-08-08T14:12:14.829Z,50.85
2023-08-08T14:14:54.616Z,52.08
2023-08-08T14:17:38.606Z,52.52
2023-08-08T14:20:23.546Z,53.59
2023-08-08T14:23:03.543Z,52.11
2023-08-08T14:26:08.324Z,51.29
2023-08-08T14:28:47.910Z,50.83
2023-08-08T14:31:27.608Z,49.97
2023-08-08T14:34:07.373Z,48.62
2023-08-08T14:36:56.731Z,46.51
2023-08-08T14:39:25.903Z,45.19
2023-08-08T14:42:06.169Z,46.20
2023-08-08T14:44:48.493Z,45.27
2023-08-08T14:47:28.277Z,45.02
2023-08-08T14:50:15.155Z,42.94
2023-08-08T14:52:55.096Z,41.42
2023-08-08T14:55:34.978Z,41.60
2023-08-08T14:58:15.071Z,43.56
2023-08-08T15:00:56.152Z,44.50
2023-08-08T15:03:36.187Z,44.98
2023-08-08T15:06:16.001Z,46.06
2023-08-08T15:09:05.113Z,47.12
2023-08-08T15:11:44.063Z,46.10
2023-08-08T15:14:23.886Z,43.08
2023-08-08T15:17:03.788Z,41.96
2023-08-08T15:19:49.253Z,39.90
2023-08-08T15:22:29.207Z,40.99
2023-08-08T15:25:15.041Z,40.55
2023-08-08T15:27:54.876Z,40.04
2023-08-08T15:30:39.412Z,39.71
2023-08-08T15:33:19.846Z,39.46
2023-08-08T15:35:59.741Z,40.81
2023-08-08T15:38:39.580Z,41.10
2023-08-08T15:41:20.807Z,42.38
2023-08-08T15:44:00.744Z,43.15
2023-08-08T15:46:43.617Z,46.13
2023-08-08T15:49:23.553Z,47.26
2023-08-08T15:52:03.364Z,48.70
2023-08-08T15:54:43.074Z,49.59
2023-08-08T15:57:25.167Z,50.36
2023-08-08T16:00:07.557Z,50.56
2023-08-08T16:02:47.392Z,51.50
2023-08-08T16:05:29.344Z,51.98
2023-08-08T16:08:16.253Z,52.53
2023-08-08T16:10:54.696Z,53.91
2023-08-08T16:13:34.453Z,55.20
2023-08-08T16:16:14.138Z,55.28
2023-08-08T16:18:53.997Z,55.68
2023-08-08T16:21:36.485Z,55.43
2023-08-08T16:24:16.206Z,53.86
2023-08-08T16:26:55.855Z,55.06
2023-08-08T16:29:35.670Z,55.60
2023-08-08T16:32:15.341Z,55.77
2023-08-08T16:34:55.506Z,56.98
2023-08-08T16:37:35.110Z,56.78
2023-08-08T16:40:14.814Z,56.98
2023-08-08T16:42:54.422Z,57.74
2023-08-08T16:45:34.064Z,58.39
2023-08-08T16:48:13.715Z,58.99
2023-08-08T16:50:55.053Z,57.53
2023-08-08T16:53:34.777Z,57.43
2023-08-08T16:56:15.964Z,58.26
2023-08-08T16:58:55.611Z,58.75
2023-08-08T17:01:38.000Z,59.96
2023-08-08T17:04:18.476Z,60.36
2023-08-08T17:07:01.273Z,61.57
2023-08-08T17:09:41.970Z,61.73
2023-08-08T17:12:21.578Z,63.13
2023-08-08T17:15:01.147Z,64.42
2023-08-08T17:17:40.841Z,65.70
2023-08-08T17:20:20.458Z,69.17
2023-08-08T17:23:00.090Z,70.82
2023-08-08T17:25:39.800Z,70.28
2023-08-08T17:28:19.535Z,71.32
2023-08-08T17:31:02.424Z,71.14
2023-08-08T17:33:42.143Z,70.88
2023-08-08T17:36:22.267Z,71.60
2023-08-08T17:39:01.956Z,71.30
2023-08-08T17:41:44.237Z,72.38
2023-08-08T17:44:23.971Z,73.40
2023-08-08T17:47:04.443Z,74.82
2023-08-08T17:49:44.817Z,77.59
2023-08-08T17:52:24.872Z,79.54
2023-08-08T17:55:04.674Z,79.88
2023-08-08T17:57:44.197Z,81.80
2023-08-08T18:00:23.897Z,83.72
2023-08-08T18:03:03.828Z,83.27
2023-08-08T18:05:43.205Z,84.14
2023-08-08T18:08:23.204Z,84.32
2023-08-08T18:11:02.819Z,84.65
2023-08-08T18:13:42.457Z,85.35
2023-08-08T18:16:22.034Z,85.60
2023-08-08T18:19:02.620Z,85.38
2023-08-08T18:21:42.260Z,85.68
2023-08-08T18:24:21.911Z,85.56
2023-08-08T18:27:00.555Z,85.73
2023-08-08T18:29:40.306Z,85.42
2023-08-08T18:32:19.981Z,85.34
2023-08-08T18:34:59.597Z,86.07
2023-08-08T18:37:41.397Z,86.54
2023-08-08T18:40:22.365Z,86.83
2023-08-08T18:43:02.186Z,86.39
2023-08-08T18:45:45.000Z,87.29
2023-08-08T18:48:24.645Z,87.59
2023-08-08T18:51:04.244Z,88.59
2023-08-08T18:53:45.022Z,88.69
2023-08-08T18:56:25.060Z,89.07
2023-08-08T18:59:04.686Z,89.70
2023-08-08T19:01:44.366Z,89.90
2023-08-08T19:04:23.952Z,90.48
2023-08-08T19:07:03.882Z,90.62
2023-08-08T19:09:45.881Z,90.30
2023-08-08T19:12:25.557Z,90.78
2023-08-08T19:15:06.053Z,90.89
2023-08-08T19:17:55.435Z,90.92
2023-08-08T19:20:26.104Z,90.90
2023-08-08T19:23:12.816Z,91.16
2023-08-08T19:25:52.499Z,91.42
2023-08-08T19:28:32.202Z,91.11
2023-08-08T19:31:11.838Z,91.30
2023-08-08T19:34:04.328Z,91.71
2023-08-08T19:36:31.156Z,92.15
2023-08-08T19:39:13.884Z,92.32
2023-08-08T19:41:53.504Z,92.22
2023-08-08T19:44:33.110Z,92.71
2023-08-08T19:47:13.842Z,92.76
2023-08-08T19:49:52.737Z,93.27
2023-08-08T19:52:32.392Z,93.36
2023-08-08T19:55:12.080Z,93.31
2023-08-08T19:58:00.550Z,93.46
2023-08-08T20:00:42.572Z,93.37
2023-08-08T20:03:22.456Z,93.88
2023-08-08T20:06:02.138Z,93.56
2023-08-08T20:08:41.864Z,94.15
2023-08-08T20:11:21.461Z,94.08
2023-08-08T20:14:01.108Z,94.20
2023-08-08T20:16:40.819Z,94.47
2023-08-08T20:19:20.442Z,94.48
2023-08-08T20:22:00.020Z,94.44
2023-08-08T20:24:39.776Z,95.15
2023-08-08T20:27:19.470Z,94.92
2023-08-08T20:29:59.033Z,95.21
2023-08-08T20:32:39.069Z,95.30
2023-08-08T20:35:20.895Z,95.54
2023-08-08T20:38:01.030Z,95.95
2023-08-08T20:40:40.799Z,95.95
2023-08-08T20:43:20.562Z,96.26
2023-08-08T20:46:03.070Z,96.70
2023-08-08T20:48:43.927Z,96.84
2023-08-08T20:51:23.464Z,96.98
2023-08-08T20:54:07.128Z,96.77
2023-08-08T20:56:47.555Z,96.95
2023-08-08T20:59:28.276Z,97.12
2023-08-08T21:02:09.392Z,97.28
2023-08-08T21:04:50.438Z,96.82
2023-08-08T21:07:29.046Z,96.79
2023-08-08T21:10:14.489Z,97.13
2023-08-08T21:12:54.064Z,97.21
2023-08-08T21:15:33.680Z,97.16
2023-08-08T21:18:14.306Z,97.21
2023-08-08T21:20:53.976Z,97.23
2023-08-08T21:23:33.752Z,97.65
2023-08-08T21:26:13.740Z,97.58
2023-08-08T21:28:53.023Z,97.58
2023-08-08T21:31:35.677Z,97.77
2023-08-08T21:34:15.202Z,97.78
2023-08-08T21:36:54.822Z,97.86
2023-08-08T21:39:34.415Z,97.88
2023-08-08T21:42:13.993Z,97.80
2023-08-08T21:44:53.667Z,97.79
2023-08-08T21:47:33.335Z,97.85
2023-08-08T21:50:12.790Z,97.68
2023-08-08T21:52:52.242Z,97.95
2023-08-08T21:55:31.999Z,98.09
2023-08-08T21:58:12.316Z,97.86
2023-08-08T22:00:53.002Z,97.92
2023-08-08T22:03:32.555Z,97.82
2023-08-08T22:06:12.458Z,98.04
2023-08-08T22:08:52.097Z,97.85
2023-08-08T22:11:31.776Z,97.86
2023-08-08T22:14:11.344Z,98.04
2023-08-08T22:16:51.147Z,97.99
2023-08-08T22:19:32.643Z,97.79
2023-08-08T22:22:12.189Z,97.94
2023-08-08T22:24:51.869Z,97.96
2023-08-08T22:27:31.752Z,98.08
2023-08-08T22:30:12.580Z,98.25
2023-08-08T22:32:52.246Z,98.13
2023-08-08T22:35:31.896Z,98.10
2023-08-08T22:38:11.565Z,98.41
2023-08-08T22:40:51.141Z,98.01
2023-08-08T22:43:30.813Z,98.36
2023-08-08T22:46:10.448Z,98.27
2023-08-08T22:48:51.627Z,97.87
2023-08-08T22:51:31.529Z,98.27
2023-08-08T22:54:13.368Z,98.05
2023-08-08T22:56:53.081Z,98.05
2023-08-08T22:59:32.613Z,97.94
2023-08-08T23:02:13.020Z,98.18
2023-08-08T23:04:52.636Z,98.03
2023-08-08T23:07:32.171Z,98.14
2023-08-08T23:10:11.851Z,98.40
2023-08-08T23:12:51.553Z,98.33
2023-08-08T23:15:31.172Z,98.09
2023-08-08T23:18:10.412Z,98.39
2023-08-08T23:20:53.075Z,98.20
2023-08-08T23:23:32.713Z,98.16
2023-08-08T23:26:13.009Z,98.33
2023-08-08T23:28:52.700Z,98.03
2023-08-08T23:31:33.914Z,98.16
2023-08-08T23:34:13.626Z,98.33
2023-08-08T23:36:53.098Z,98.39
2023-08-08T23:39:32.717Z,98.67
2023-08-08T23:42:12.765Z,98.76
2023-08-08T23:44:52.445Z,98.41
2023-08-08T23:47:33.353Z,98.66
2023-08-08T23:50:13.036Z,98.57
2023-08-08T23:52:52.747Z,98.71
2023-08-08T23:55:32.299Z,98.55
2023-08-08T23:58:12.103Z,98.38
